sensor_id;sensor_type;location;lat;lon;timestamp;P1;durP1;ratioP1;P2;durP2;ratioP2
61407;SDS011;47274;43.054;25.146;2023-03-18T18:01:12;33.50;;;17.20;;
61407;SDS011;47274;43.054;25.146;2023-03-18T18:03:40;28.77;;;14.70;;
61407;SDS011;47274;43.054;25.146;2023-03-18T18:06:08;26.17;;;13.93;;
61407;SDS011;47274;43.054;25.146;2023-03-18T18:08:41;24.80;;;12.43;;
61407;SDS011;47274;43.054;25.146;2023-03-18T18:13:47;30.13;;;15.57;;
61407;SDS011;47274;43.054;25.146;2023-03-18T18:16:14;30.93;;;15.87;;
61407;SDS011;47274;43.054;25.146;2023-03-18T18:18:41;27.23;;;13.67;;
61407;SDS011;47274;43.054;25.146;2023-03-18T18:21:10;24.83;;;12.07;;
61407;SDS011;47274;43.054;25.146;2023-03-18T18:23:39;23.57;;;11.07;;
61407;SDS011;47274;43.054;25.146;2023-03-18T18:26:06;25.67;;;12.33;;
61407;SDS011;47274;43.054;25.146;2023-03-18T18:28:35;26.47;;;14.37;;
61407;SDS011;47274;43.054;25.146;2023-03-18T18:31:04;30.47;;;18.07;;
61407;SDS011;47274;43.054;25.146;2023-03-18T18:33:32;23.70;;;11.93;;
61407;SDS011;47274;43.054;25.146;2023-03-18T18:35:59;20.63;;;9.20;;
61407;SDS011;47274;43.054;25.146;2023-03-18T18:38:32;22.80;;;9.17;;
61407;SDS011;47274;43.054;25.146;2023-03-18T18:41:25;22.63;;;10.30;;
61407;SDS011;47274;43.054;25.146;2023-03-18T18:43:51;22.80;;;10.47;;
61407;SDS011;47274;43.054;25.146;2023-03-18T18:46:17;21.03;;;9.70;;
61407;SDS011;47274;43.054;25.146;2023-03-18T18:48:54;21.90;;;10.23;;
61407;SDS011;47274;43.054;25.146;2023-03-18T18:51:21;20.63;;;9.67;;
61407;SDS011;47274;43.054;25.146;2023-03-18T18:53:49;19.83;;;8.70;;
61407;SDS011;47274;43.054;25.146;2023-03-18T18:56:17;17.10;;;7.40;;
61407;SDS011;47274;43.054;25.146;2023-03-18T18:58:48;14.27;;;6.20;;
61407;SDS011;47274;43.054;25.146;2023-03-18T19:01:16;15.23;;;5.87;;
61407;SDS011;47274;43.054;25.146;2023-03-18T19:03:43;14.77;;;5.87;;
61407;SDS011;47274;43.054;25.146;2023-03-18T19:06:22;14.40;;;5.70;;
61407;SDS011;47274;43.054;25.146;2023-03-18T19:08:54;14.50;;;6.13;;
61407;SDS011;47274;43.054;25.146;2023-03-18T19:11:31;13.93;;;5.17;;
61407;SDS011;47274;43.054;25.146;2023-03-18T19:14:17;15.00;;;5.50;;
61407;SDS011;47274;43.054;25.146;2023-03-18T19:16:50;12.38;;;5.50;;
61407;SDS011;47274;43.054;25.146;2023-03-18T19:19:20;12.00;;;4.90;;
61407;SDS011;47274;43.054;25.146;2023-03-18T19:21:49;22.02;;;9.13;;
61407;SDS011;47274;43.054;25.146;2023-03-18T19:26:47;22.13;;;9.00;;
61407;SDS011;47274;43.054;25.146;2023-03-18T19:29:17;18.97;;;7.57;;
61407;SDS011;47274;43.054;25.146;2023-03-18T19:31:43;21.13;;;9.43;;
61407;SDS011;47274;43.054;25.146;2023-03-18T19:34:16;20.30;;;9.43;;
61407;SDS011;47274;43.054;25.146;2023-03-18T19:36:44;22.80;;;11.63;;
61407;SDS011;47274;43.054;25.146;2023-03-18T19:39:17;27.83;;;14.40;;
61407;SDS011;47274;43.054;25.146;2023-03-18T19:41:44;27.07;;;13.60;;
61407;SDS011;47274;43.054;25.146;2023-03-18T19:44:17;24.13;;;10.60;;
61407;SDS011;47274;43.054;25.146;2023-03-18T19:46:46;23.77;;;11.20;;
61407;SDS011;47274;43.054;25.146;2023-03-18T19:49:21;23.90;;;10.30;;
61407;SDS011;47274;43.054;25.146;2023-03-18T19:51:53;19.90;;;8.27;;
61407;SDS011;47274;43.054;25.146;2023-03-18T19:54:31;17.43;;;6.97;;
61407;SDS011;47274;43.054;25.146;2023-03-18T19:57:03;18.20;;;8.20;;
61407;SDS011;47274;43.054;25.146;2023-03-18T19:59:31;17.60;;;7.18;;
61407;SDS011;47274;43.054;25.146;2023-03-18T20:01:58;17.70;;;7.10;;
61407;SDS011;47274;43.054;25.146;2023-03-18T20:04:26;16.00;;;6.90;;
61407;SDS011;47274;43.054;25.146;2023-03-18T20:06:53;15.73;;;6.80;;
61407;SDS011;47274;43.054;25.146;2023-03-18T20:09:20;14.33;;;6.17;;
61407;SDS011;47274;43.054;25.146;2023-03-18T20:11:47;30.83;;;17.03;;
61407;SDS011;47274;43.054;25.146;2023-03-18T20:14:24;33.70;;;19.63;;
61407;SDS011;47274;43.054;25.146;2023-03-18T20:16:52;42.50;;;25.00;;
61407;SDS011;47274;43.054;25.146;2023-03-18T20:19:19;41.03;;;23.07;;
61407;SDS011;47274;43.054;25.146;2023-03-18T20:21:45;29.73;;;15.83;;
61407;SDS011;47274;43.054;25.146;2023-03-18T20:24:15;27.27;;;13.67;;
61407;SDS011;47274;43.054;25.146;2023-03-18T20:26:46;26.17;;;12.37;;
61407;SDS011;47274;43.054;25.146;2023-03-18T20:29:13;26.90;;;12.33;;
61407;SDS011;47274;43.054;25.146;2023-03-18T20:31:41;24.63;;;11.20;;
61407;SDS011;47274;43.054;25.146;2023-03-18T20:34:08;26.13;;;12.93;;
61407;SDS011;47274;43.054;25.146;2023-03-18T20:36:37;30.23;;;15.10;;
61407;SDS011;47274;43.054;25.146;2023-03-18T20:39:11;29.27;;;14.07;;
61407;SDS011;47274;43.054;25.146;2023-03-18T20:41:45;52.83;;;25.87;;
61407;SDS011;47274;43.054;25.146;2023-03-18T20:44:12;112.03;;;51.87;;
61407;SDS011;47274;43.054;25.146;2023-03-18T20:46:40;98.87;;;43.63;;
61407;SDS011;47274;43.054;25.146;2023-03-18T20:49:07;79.87;;;41.40;;
61407;SDS011;47274;43.054;25.146;2023-03-18T20:51:34;48.33;;;23.30;;
61407;SDS011;47274;43.054;25.146;2023-03-18T20:54:18;40.70;;;18.00;;
61407;SDS011;47274;43.054;25.146;2023-03-18T20:56:49;37.67;;;16.50;;
61407;SDS011;47274;43.054;25.146;2023-03-18T20:59:15;34.03;;;15.57;;
61407;SDS011;47274;43.054;25.146;2023-03-18T21:01:41;31.37;;;14.13;;
61407;SDS011;47274;43.054;25.146;2023-03-18T21:04:10;29.33;;;13.10;;
61407;SDS011;47274;43.054;25.146;2023-03-18T21:06:37;27.57;;;11.87;;
61407;SDS011;47274;43.054;25.146;2023-03-18T21:09:03;25.30;;;11.47;;
61407;SDS011;47274;43.054;25.146;2023-03-18T21:11:31;27.70;;;11.97;;
61407;SDS011;47274;43.054;25.146;2023-03-18T21:13:57;26.80;;;11.60;;
61407;SDS011;47274;43.054;25.146;2023-03-18T21:16:23;23.83;;;10.53;;
61407;SDS011;47274;43.054;25.146;2023-03-18T21:18:49;21.30;;;7.77;;
61407;SDS011;47274;43.054;25.146;2023-03-18T21:21:26;21.23;;;8.37;;
61407;SDS011;47274;43.054;25.146;2023-03-18T21:23:57;19.23;;;7.20;;
61407;SDS011;47274;43.054;25.146;2023-03-18T21:26:26;17.70;;;6.50;;
61407;SDS011;47274;43.054;25.146;2023-03-18T21:28:52;17.03;;;6.30;;
61407;SDS011;47274;43.054;25.146;2023-03-18T21:31:28;15.77;;;5.83;;
61407;SDS011;47274;43.054;25.146;2023-03-18T21:33:57;14.13;;;5.50;;
61407;SDS011;47274;43.054;25.146;2023-03-18T21:36:24;14.60;;;5.53;;
61407;SDS011;47274;43.054;25.146;2023-03-18T21:38:50;15.70;;;5.60;;
61407;SDS011;47274;43.054;25.146;2023-03-18T21:41:23;14.07;;;5.43;;
61407;SDS011;47274;43.054;25.146;2023-03-18T21:43:53;16.23;;;5.83;;
61407;SDS011;47274;43.054;25.146;2023-03-18T21:46:19;12.93;;;4.80;;
61407;SDS011;47274;43.054;25.146;2023-03-18T21:48:51;15.07;;;4.73;;
61407;SDS011;47274;43.054;25.146;2023-03-18T21:51:27;10.70;;;4.20;;
61407;SDS011;47274;43.054;25.146;2023-03-18T21:53:57;11.63;;;4.50;;
61407;SDS011;47274;43.054;25.146;2023-03-18T21:56:23;11.30;;;4.43;;
61407;SDS011;47274;43.054;25.146;2023-03-18T21:58:49;14.17;;;4.90;;
61407;SDS011;47274;43.054;25.146;2023-03-18T22:01:21;13.27;;;4.40;;
61407;SDS011;47274;43.054;25.146;2023-03-18T22:03:53;9.47;;;4.20;;
61407;SDS011;47274;43.054;25.146;2023-03-18T22:06:19;10.00;;;4.23;;
61407;SDS011;47274;43.054;25.146;2023-03-18T22:08:48;7.87;;;3.80;;
61407;SDS011;47274;43.054;25.146;2023-03-18T22:11:17;8.53;;;3.90;;
61407;SDS011;47274;43.054;25.146;2023-03-18T22:13:45;8.37;;;3.97;;
61407;SDS011;47274;43.054;25.146;2023-03-18T22:16:12;9.07;;;3.80;;
61407;SDS011;47274;43.054;25.146;2023-03-18T22:18:39;9.37;;;3.80;;
61407;SDS011;47274;43.054;25.146;2023-03-18T22:21:22;16.03;;;6.17;;
61407;SDS011;47274;43.054;25.146;2023-03-18T22:23:50;14.47;;;5.20;;
61407;SDS011;47274;43.054;25.146;2023-03-18T22:26:17;13.90;;;4.70;;
61407;SDS011;47274;43.054;25.146;2023-03-18T22:28:44;11.60;;;4.10;;
61407;SDS011;47274;43.054;25.146;2023-03-18T22:31:16;9.87;;;4.10;;
61407;SDS011;47274;43.054;25.146;2023-03-18T22:33:47;9.17;;;4.13;;
61407;SDS011;47274;43.054;25.146;2023-03-18T22:36:13;10.23;;;4.30;;
61407;SDS011;47274;43.054;25.146;2023-03-18T22:38:40;8.13;;;4.03;;
61407;SDS011;47274;43.054;25.146;2023-03-18T22:41:11;11.10;;;4.40;;
61407;SDS011;47274;43.054;25.146;2023-03-18T22:43:41;11.67;;;4.63;;
61407;SDS011;47274;43.054;25.146;2023-03-18T22:46:07;7.63;;;4.00;;
61407;SDS011;47274;43.054;25.146;2023-03-18T22:48:35;9.43;;;4.03;;
61407;SDS011;47274;43.054;25.146;2023-03-18T22:51:02;12.13;;;4.33;;
61407;SDS011;47274;43.054;25.146;2023-03-18T22:53:33;11.97;;;4.23;;
61407;SDS011;47274;43.054;25.146;2023-03-18T22:56:12;10.83;;;4.43;;
61407;SDS011;47274;43.054;25.146;2023-03-18T22:58:41;10.67;;;4.57;;
61407;SDS011;47274;43.054;25.146;2023-03-18T23:01:08;8.93;;;4.23;;
61407;SDS011;47274;43.054;25.146;2023-03-18T23:03:38;7.72;;;3.95;;
61407;SDS011;47274;43.054;25.146;2023-03-18T23:06:04;9.27;;;4.40;;
61407;SDS011;47274;43.054;25.146;2023-03-18T23:08:32;8.60;;;4.33;;
61407;SDS011;47274;43.054;25.146;2023-03-18T23:10:58;11.27;;;4.67;;
61407;SDS011;47274;43.054;25.146;2023-03-18T23:16:06;11.23;;;5.07;;
61407;SDS011;47274;43.054;25.146;2023-03-18T23:18:35;12.43;;;5.40;;
61407;SDS011;47274;43.054;25.146;2023-03-18T23:21:02;13.97;;;5.67;;
61407;SDS011;47274;43.054;25.146;2023-03-18T23:23:28;18.87;;;7.90;;
61407;SDS011;47274;43.054;25.146;2023-03-18T23:25:54;22.57;;;9.93;;
61407;SDS011;47274;43.054;25.146;2023-03-18T23:28:21;22.83;;;11.07;;
61407;SDS011;47274;43.054;25.146;2023-03-18T23:30:48;18.13;;;8.17;;
61407;SDS011;47274;43.054;25.146;2023-03-18T23:33:15;18.83;;;7.70;;
61407;SDS011;47274;43.054;25.146;2023-03-18T23:35:42;16.20;;;7.00;;
61407;SDS011;47274;43.054;25.146;2023-03-18T23:38:09;13.30;;;5.90;;
61407;SDS011;47274;43.054;25.146;2023-03-18T23:40:35;13.70;;;5.87;;
61407;SDS011;47274;43.054;25.146;2023-03-18T23:43:01;12.03;;;5.43;;
61407;SDS011;47274;43.054;25.146;2023-03-18T23:45:28;13.57;;;6.03;;
61407;SDS011;47274;43.054;25.146;2023-03-18T23:47:54;11.63;;;4.90;;
61407;SDS011;47274;43.054;25.146;2023-03-18T23:50:20;13.57;;;5.40;;
61407;SDS011;47274;43.054;25.146;2023-03-18T23:52:46;13.43;;;5.00;;
61407;SDS011;47274;43.054;25.146;2023-03-18T23:55:12;11.57;;;4.70;;
61407;SDS011;47274;43.054;25.146;2023-03-18T23:57:38;11.97;;;5.03;;
